createdAt,value
2017-02-05T00:00:08.569Z,0
2017-02-05T00:01:08.453Z,0
2017-02-05T00:02:08.493Z,0
2017-02-05T00:03:08.675Z,0
2017-02-05T00:04:08.495Z,0
2017-02-05T00:05:08.620Z,0
2017-02-05T00:06:08.143Z,0
2017-02-05T00:07:08.654Z,0
2017-02-05T00:08:08.265Z,0
2017-02-05T00:09:08.554Z,0
2017-02-05T00:10:08.178Z,0
2017-02-05T00:11:08.189Z,0
2017-02-05T00:12:08.615Z,0
2017-02-05T00:13:08.605Z,0
2017-02-05T00:14:08.627Z,0
2017-02-05T00:15:08.357Z,0
2017-02-05T00:16:08.258Z,0
2017-02-05T00:17:08.266Z,0
2017-02-05T00:18:08.671Z,0
2017-02-05T00:19:08.299Z,0
2017-02-05T00:20:08.420Z,0
2017-02-05T00:21:08.820Z,0
2017-02-05T00:22:07.948Z,0
2017-02-05T00:23:08.846Z,0
2017-02-05T00:24:08.359Z,0
2017-02-05T00:25:08.896Z,0
2017-02-05T00:26:08.872Z,0
2017-02-05T00:27:08.949Z,0
2017-02-05T00:28:08.937Z,0
2017-02-05T00:29:08.841Z,0
2017-02-05T00:30:08.046Z,0
2017-02-05T00:31:09.024Z,0
2017-02-05T00:32:08.855Z,0
2017-02-05T00:33:08.548Z,0
2017-02-05T00:34:08.877Z,0
2017-02-05T00:35:08.888Z,0
2017-02-05T00:36:08.969Z,0
2017-02-05T00:37:08.910Z,0
2017-02-05T00:38:08.542Z,0
2017-02-05T00:39:08.935Z,0
2017-02-05T00:40:08.980Z,0
2017-02-05T00:41:08.565Z,0
2017-02-05T00:42:08.580Z,0
2017-02-05T00:43:09.105Z,0
2017-02-05T00:44:09.019Z,0
2017-02-05T00:45:09.221Z,0
2017-02-05T00:46:09.039Z,0
2017-02-05T00:47:08.760Z,0
2017-02-05T00:48:09.171Z,0
2017-02-05T00:49:09.073Z,0
2017-02-05T00:50:08.684Z,0
2017-02-05T00:51:09.207Z,0
2017-02-05T00:52:09.136Z,0
2017-02-05T00:53:09.114Z,0
2017-02-05T00:54:08.734Z,0
2017-02-05T00:55:09.303Z,0
2017-02-05T00:56:09.215Z,0
2017-02-05T00:57:09.167Z,0
2017-02-05T00:58:09.223Z,0
2017-02-05T00:59:09.306Z,0
2017-02-05T01:00:09.314Z,0
2017-02-05T01:01:09.218Z,0
2017-02-05T01:02:09.280Z,0
2017-02-05T01:03:09.246Z,0
2017-02-05T01:04:09.259Z,0
2017-02-05T01:05:09.380Z,0
2017-02-05T01:06:08.893Z,0
2017-02-05T01:07:09.295Z,0
2017-02-05T01:08:09.449Z,0
2017-02-05T01:09:09.333Z,0
2017-02-05T01:10:09.361Z,0
2017-02-05T01:11:09.356Z,0
2017-02-05T01:12:09.354Z,0
2017-02-05T01:13:09.491Z,0
2017-02-05T01:14:09.375Z,0
2017-02-05T01:15:09.504Z,0
2017-02-05T01:16:09.212Z,0
2017-02-05T01:17:09.026Z,0
2017-02-05T01:18:09.150Z,0
2017-02-05T01:19:09.585Z,0
2017-02-05T01:20:09.575Z,0
2017-02-05T01:21:09.468Z,0
2017-02-05T01:22:09.687Z,0
2017-02-05T01:23:09.490Z,0
2017-02-05T01:24:09.109Z,0
2017-02-05T01:25:09.546Z,0
2017-02-05T01:26:09.528Z,0
2017-02-05T01:27:09.551Z,0
2017-02-05T01:28:09.555Z,0
2017-02-05T01:29:09.231Z,0
2017-02-05T01:30:09.705Z,0
2017-02-05T01:31:09.703Z,0
2017-02-05T01:32:09.323Z,0
2017-02-05T01:33:09.709Z,0
2017-02-05T01:34:09.634Z,0
2017-02-05T01:35:09.646Z,0
2017-02-05T01:36:09.660Z,0
2017-02-05T01:37:09.661Z,0
2017-02-05T01:38:09.880Z,0
2017-02-05T01:39:09.804Z,0
2017-02-05T01:40:09.706Z,0
2017-02-05T01:41:09.720Z,0
2017-02-05T01:42:09.734Z,0
2017-02-05T01:43:09.739Z,0
2017-02-05T01:44:09.356Z,0
2017-02-05T01:45:09.768Z,0
2017-02-05T01:46:16.126Z,0
2017-02-05T01:47:09.929Z,0
2017-02-05T01:48:09.802Z,0
2017-02-05T01:49:09.814Z,0
2017-02-05T01:50:09.989Z,0
2017-02-05T01:51:09.834Z,0
2017-02-05T01:52:09.492Z,0
2017-02-05T01:53:09.501Z,0
2017-02-05T01:54:09.879Z,0
2017-02-05T01:55:09.508Z,0
2017-02-05T01:56:09.899Z,0
2017-02-05T01:57:09.525Z,0
2017-02-05T01:58:10.006Z,0
2017-02-05T01:59:09.934Z,0
2017-02-05T02:00:09.948Z,0
2017-02-05T02:01:09.958Z,0
2017-02-05T02:02:09.978Z,0
2017-02-05T02:03:09.987Z,0
2017-02-05T02:04:09.995Z,0
2017-02-05T02:05:10.005Z,0
2017-02-05T02:06:10.027Z,0
2017-02-05T02:07:09.638Z,0
2017-02-05T02:08:10.064Z,0
2017-02-05T02:09:10.056Z,0
2017-02-05T02:10:10.077Z,0
2017-02-05T02:11:10.085Z,0
2017-02-05T02:12:10.093Z,0
2017-02-05T02:13:10.106Z,0
2017-02-05T02:14:09.723Z,0
2017-02-05T02:15:10.137Z,0
2017-02-05T02:16:10.144Z,0
2017-02-05T02:17:10.158Z,0
2017-02-05T02:18:09.777Z,0
2017-02-05T02:19:10.183Z,0
2017-02-05T02:20:10.186Z,0
2017-02-05T02:21:10.206Z,0
2017-02-05T02:22:10.229Z,0
2017-02-05T02:23:09.824Z,0
2017-02-05T02:24:10.240Z,0
2017-02-05T02:25:09.856Z,0
2017-02-05T02:26:10.270Z,0
2017-02-05T02:27:10.279Z,0
2017-02-05T02:28:09.895Z,0
2017-02-05T02:29:10.310Z,0
2017-02-05T02:30:09.934Z,0
2017-02-05T02:31:09.932Z,0
2017-02-05T02:32:10.344Z,0
2017-02-05T02:33:10.357Z,0
2017-02-05T02:34:10.363Z,0
2017-02-05T02:35:10.390Z,0
2017-02-05T02:36:09.593Z,0
2017-02-05T02:37:10.405Z,0
2017-02-05T02:38:10.017Z,0
2017-02-05T02:39:10.423Z,0
2017-02-05T02:40:10.049Z,0
2017-02-05T02:41:10.447Z,0
2017-02-05T02:42:10.065Z,0
2017-02-05T02:43:10.474Z,0
2017-02-05T02:44:10.086Z,0
2017-02-05T02:45:09.702Z,0
2017-02-05T02:46:10.113Z,0
2017-02-05T02:47:10.122Z,0
2017-02-05T02:48:10.545Z,0
2017-02-05T02:49:10.149Z,0
2017-02-05T02:50:10.167Z,0
2017-02-05T02:51:10.574Z,0
2017-02-05T02:52:10.582Z,0
2017-02-05T02:53:10.205Z,0
2017-02-05T02:54:10.608Z,0
2017-02-05T02:55:10.620Z,0
2017-02-05T02:56:10.234Z,0
2017-02-05T02:57:10.674Z,0
2017-02-05T02:58:10.333Z,0
2017-02-05T02:59:10.357Z,0
2017-02-05T03:00:10.680Z,0
2017-02-05T03:01:10.375Z,0
2017-02-05T03:02:10.740Z,0
2017-02-05T03:03:10.716Z,0
2017-02-05T03:04:10.729Z,0
2017-02-05T03:05:10.811Z,0
2017-02-05T03:06:10.368Z,0
2017-02-05T03:07:10.417Z,0
2017-02-05T03:08:10.774Z,0
2017-02-05T03:09:10.790Z,0
2017-02-05T03:10:10.503Z,0
2017-02-05T03:11:10.415Z,0
2017-02-05T03:12:10.823Z,0
2017-02-05T03:13:10.840Z,0
2017-02-05T03:14:10.056Z,0
2017-02-05T03:15:10.463Z,0
2017-02-05T03:16:11.060Z,0
2017-02-05T03:17:09.878Z,0
2017-02-05T03:18:11.006Z,0
2017-02-05T03:19:10.610Z,0
2017-02-05T03:20:10.128Z,0
2017-02-05T03:21:11.055Z,0
2017-02-05T03:22:10.240Z,0
2017-02-05T03:23:10.955Z,0
2017-02-05T03:24:10.736Z,0
2017-02-05T03:25:11.061Z,0
2017-02-05T03:26:10.710Z,0
2017-02-05T03:27:11.006Z,0
2017-02-05T03:28:11.018Z,0
2017-02-05T03:29:11.025Z,0
2017-02-05T03:30:10.643Z,0
2017-02-05T03:31:11.047Z,0
2017-02-05T03:32:11.067Z,0
2017-02-05T03:33:10.672Z,0
2017-02-05T03:34:11.089Z,0
2017-02-05T03:35:10.700Z,0
2017-02-05T03:36:10.319Z,0
2017-02-05T03:37:10.799Z,0
2017-02-05T03:38:11.287Z,0
2017-02-05T03:39:10.752Z,0
2017-02-05T03:40:11.157Z,0
2017-02-05T03:41:11.169Z,0
2017-02-05T03:42:09.989Z,0
2017-02-05T03:43:11.190Z,0
2017-02-05T03:44:10.831Z,0
2017-02-05T03:45:10.820Z,0
2017-02-05T03:46:11.250Z,0
2017-02-05T03:47:10.953Z,0
2017-02-05T03:48:11.254Z,0
2017-02-05T03:49:11.423Z,0
2017-02-05T03:50:11.279Z,0
2017-02-05T03:51:11.286Z,0
2017-02-05T03:52:10.904Z,0
2017-02-05T03:53:11.314Z,0
2017-02-05T03:54:11.053Z,0
2017-02-05T03:55:11.053Z,0
2017-02-05T03:56:10.560Z,0
2017-02-05T03:57:10.572Z,0
2017-02-05T03:58:11.375Z,0
2017-02-05T03:59:11.388Z,0
2017-02-05T04:00:11.401Z,0
2017-02-05T04:01:11.525Z,0
2017-02-05T04:02:11.537Z,0
2017-02-05T04:03:11.039Z,0
2017-02-05T04:04:11.449Z,0
2017-02-05T04:05:11.575Z,0
2017-02-05T04:06:10.674Z,0
2017-02-05T04:07:11.080Z,0
2017-02-05T04:08:11.099Z,0
2017-02-05T04:09:11.512Z,0
2017-02-05T04:10:11.519Z,0
2017-02-05T04:11:11.136Z,0
2017-02-05T04:12:11.543Z,0
2017-02-05T04:13:11.554Z,0
2017-02-05T04:14:11.569Z,0
2017-02-05T04:15:11.576Z,0
2017-02-05T04:16:11.586Z,0
2017-02-05T04:17:11.601Z,0
2017-02-05T04:18:11.615Z,0
2017-02-05T04:19:11.630Z,0
2017-02-05T04:20:11.634Z,0
2017-02-05T04:21:11.766Z,0
2017-02-05T04:22:11.662Z,0
2017-02-05T04:23:11.674Z,0
2017-02-05T04:24:11.701Z,0
2017-02-05T04:25:11.697Z,0
2017-02-05T04:26:11.710Z,0
2017-02-05T04:27:11.728Z,0
2017-02-05T04:28:11.335Z,0
2017-02-05T04:29:11.746Z,0
2017-02-05T04:30:11.363Z,0
2017-02-05T04:31:11.764Z,0
2017-02-05T04:32:11.786Z,0
2017-02-05T04:33:11.829Z,0
2017-02-05T04:34:11.801Z,0
2017-02-05T04:35:11.819Z,0
2017-02-05T04:36:11.831Z,0
2017-02-05T04:37:11.852Z,0
2017-02-05T04:38:11.853Z,0
2017-02-05T04:39:11.869Z,0
2017-02-05T04:40:11.484Z,0
2017-02-05T04:41:11.932Z,0
2017-02-05T04:42:11.985Z,0
2017-02-05T04:43:11.994Z,0
2017-02-05T04:44:12.034Z,0
2017-02-05T04:45:12.072Z,0
2017-02-05T04:46:12.052Z,0
2017-02-05T04:47:11.962Z,0
2017-02-05T04:48:12.069Z,0
2017-02-05T04:49:11.987Z,0
2017-02-05T04:50:11.999Z,0
2017-02-05T04:51:12.014Z,0
2017-02-05T04:52:11.624Z,0
2017-02-05T04:53:12.143Z,0
2017-02-05T04:54:11.654Z,0
2017-02-05T04:55:11.659Z,0
2017-02-05T04:56:11.677Z,0
2017-02-05T04:57:11.685Z,0
2017-02-05T04:58:12.095Z,0
2017-02-05T04:59:12.106Z,0
2017-02-05T05:00:12.206Z,0
2017-02-05T05:01:11.733Z,0
2017-02-05T05:02:11.745Z,0
2017-02-05T05:03:12.153Z,0
2017-02-05T05:04:11.767Z,0
2017-02-05T05:05:11.872Z,0
2017-02-05T05:06:11.397Z,0
2017-02-05T05:07:11.816Z,0
2017-02-05T05:08:11.860Z,0
2017-02-05T05:09:12.231Z,0
2017-02-05T05:10:12.052Z,0
2017-02-05T05:11:12.246Z,0
2017-02-05T05:12:12.362Z,0
2017-02-05T05:13:12.275Z,0
2017-02-05T05:14:12.288Z,0
2017-02-05T05:15:11.901Z,0
2017-02-05T05:16:12.308Z,0
2017-02-05T05:17:12.670Z,0
2017-02-05T05:18:12.335Z,0
2017-02-05T05:19:12.349Z,0
2017-02-05T05:20:12.363Z,0
2017-02-05T05:21:11.976Z,0
2017-02-05T05:22:12.387Z,0
2017-02-05T05:23:12.394Z,0
2017-02-05T05:24:12.409Z,0
2017-02-05T05:25:12.419Z,0
2017-02-05T05:26:12.472Z,0
2017-02-05T05:27:12.049Z,0
2017-02-05T05:28:12.458Z,0
2017-02-05T05:29:12.466Z,0
2017-02-05T05:30:11.818Z,0
2017-02-05T05:31:12.491Z,0
2017-02-05T05:32:12.327Z,0
2017-02-05T05:33:12.520Z,0
2017-02-05T05:34:12.588Z,0
2017-02-05T05:35:12.658Z,0
2017-02-05T05:36:12.666Z,0
2017-02-05T05:37:12.772Z,0
2017-02-05T05:38:12.217Z,0
2017-02-05T05:39:12.596Z,0
2017-02-05T05:40:12.205Z,0
2017-02-05T05:41:12.619Z,0
2017-02-05T05:42:12.288Z,0
2017-02-05T05:43:12.630Z,0
2017-02-05T05:44:12.255Z,0
2017-02-05T05:45:12.665Z,0
2017-02-05T05:46:12.359Z,0
2017-02-05T05:47:12.693Z,0
2017-02-05T05:48:12.392Z,0
2017-02-05T05:49:12.317Z,0
2017-02-05T05:50:12.329Z,0
2017-02-05T05:51:12.757Z,0
2017-02-05T05:52:12.469Z,0
2017-02-05T05:53:12.879Z,0
2017-02-05T05:54:12.770Z,0
2017-02-05T05:55:12.776Z,0
2017-02-05T05:56:12.395Z,0
2017-02-05T05:57:12.803Z,0
2017-02-05T05:58:12.426Z,0
2017-02-05T05:59:12.834Z,0
2017-02-05T06:00:12.847Z,0
2017-02-05T06:01:12.460Z,0
2017-02-05T06:02:12.071Z,0
2017-02-05T06:03:12.989Z,0
2017-02-05T06:04:12.496Z,0
2017-02-05T06:05:13.025Z,0
2017-02-05T06:06:12.937Z,0
2017-02-05T06:07:13.045Z,0
2017-02-05T06:08:12.550Z,0
2017-02-05T06:09:12.954Z,0
2017-02-05T06:10:13.060Z,0
2017-02-05T06:11:12.581Z,0
2017-02-05T06:12:12.202Z,0
2017-02-05T06:13:13.008Z,0
2017-02-05T06:14:13.297Z,0
2017-02-05T06:15:12.720Z,0
2017-02-05T06:16:13.150Z,0
2017-02-05T06:17:13.051Z,0
2017-02-05T06:18:12.748Z,0
2017-02-05T06:19:13.193Z,0
2017-02-05T06:20:12.287Z,0
2017-02-05T06:21:13.107Z,0
2017-02-05T06:22:13.115Z,4
2017-02-05T06:23:12.720Z,4
2017-02-05T06:24:13.137Z,0
2017-02-05T06:25:13.146Z,4
2017-02-05T06:26:12.766Z,4
2017-02-05T06:27:13.174Z,4
2017-02-05T06:28:12.823Z,4
2017-02-05T06:29:13.193Z,8
2017-02-05T06:30:12.811Z,8
2017-02-05T06:31:12.826Z,8
2017-02-05T06:32:13.240Z,8
2017-02-05T06:33:12.847Z,12
2017-02-05T06:34:13.353Z,8
2017-02-05T06:35:12.921Z,12
2017-02-05T06:36:12.886Z,8
2017-02-05T06:37:13.336Z,12
2017-02-05T06:38:13.309Z,16
2017-02-05T06:39:13.317Z,16
2017-02-05T06:40:12.932Z,16
2017-02-05T06:41:13.343Z,16
2017-02-05T06:42:12.562Z,20
2017-02-05T06:43:13.362Z,16
2017-02-05T06:44:13.374Z,16
2017-02-05T06:45:13.391Z,16
2017-02-05T06:46:13.402Z,16
2017-02-05T06:47:13.415Z,20
2017-02-05T06:48:13.501Z,20
2017-02-05T06:49:13.456Z,20
2017-02-05T06:50:13.055Z,24
2017-02-05T06:51:13.462Z,28
2017-02-05T06:52:13.477Z,32
2017-02-05T06:53:13.488Z,32
2017-02-05T06:54:13.104Z,36
2017-02-05T06:55:13.512Z,32
2017-02-05T06:56:13.134Z,40
2017-02-05T06:57:13.259Z,44
2017-02-05T06:58:13.247Z,44
2017-02-05T06:59:13.243Z,40
2017-02-05T07:00:13.671Z,40
2017-02-05T07:01:13.661Z,40
2017-02-05T07:02:13.297Z,40
2017-02-05T07:03:13.710Z,40
2017-02-05T07:04:13.698Z,44
2017-02-05T07:05:13.752Z,40
2017-02-05T07:06:13.765Z,44
2017-02-05T07:07:13.712Z,48
2017-02-05T07:08:13.674Z,52
2017-02-05T07:09:13.689Z,48
2017-02-05T07:10:13.695Z,52
2017-02-05T07:11:13.709Z,52
2017-02-05T07:12:12.573Z,60
2017-02-05T07:13:13.736Z,64
2017-02-05T07:14:13.751Z,68
2017-02-05T07:15:13.759Z,72
2017-02-05T07:16:13.887Z,72
2017-02-05T07:17:14.012Z,72
2017-02-05T07:18:13.908Z,64
2017-02-05T07:19:13.533Z,60
2017-02-05T07:20:13.633Z,56
2017-02-05T07:21:13.534Z,56
2017-02-05T07:22:13.849Z,60
2017-02-05T07:23:13.865Z,68
2017-02-05T07:24:13.871Z,68
2017-02-05T07:25:13.882Z,76
2017-02-05T07:26:13.988Z,84
2017-02-05T07:27:13.511Z,84
2017-02-05T07:28:13.926Z,92
2017-02-05T07:29:13.937Z,104
2017-02-05T07:30:13.649Z,124
2017-02-05T07:31:13.966Z,144
2017-02-05T07:32:13.973Z,156
2017-02-05T07:33:14.010Z,184
2017-02-05T07:34:14.217Z,160
2017-02-05T07:35:14.012Z,152
2017-02-05T07:36:14.030Z,144
2017-02-05T07:37:14.035Z,132
2017-02-05T07:38:14.146Z,140
2017-02-05T07:39:14.081Z,128
2017-02-05T07:40:14.081Z,132
2017-02-05T07:41:14.193Z,132
2017-02-05T07:42:14.102Z,144
2017-02-05T07:43:14.110Z,132
2017-02-05T07:44:13.847Z,156
2017-02-05T07:45:14.245Z,164
2017-02-05T07:46:13.870Z,160
2017-02-05T07:47:14.284Z,200
2017-02-05T07:48:14.286Z,192
2017-02-05T07:49:14.269Z,188
2017-02-05T07:50:13.802Z,216
2017-02-05T07:51:14.208Z,220
2017-02-05T07:52:14.306Z,240
2017-02-05T07:53:14.236Z,264
2017-02-05T07:54:14.248Z,268
2017-02-05T07:55:14.265Z,244
2017-02-05T07:56:14.449Z,240
2017-02-05T07:57:14.457Z,244
2017-02-05T07:58:13.938Z,272
2017-02-05T07:59:14.413Z,256
2017-02-05T08:00:13.956Z,236
2017-02-05T08:01:14.446Z,240
2017-02-05T08:02:13.975Z,236
2017-02-05T08:03:14.561Z,236
2017-02-05T08:04:14.439Z,240
2017-02-05T08:05:14.148Z,256
2017-02-05T08:06:14.067Z,272
2017-02-05T08:07:14.521Z,284
2017-02-05T08:08:14.534Z,292
2017-02-05T08:09:14.498Z,280
2017-02-05T08:10:14.508Z,316
2017-02-05T08:11:14.513Z,312
2017-02-05T08:12:14.468Z,332
2017-02-05T08:13:14.481Z,340
2017-02-05T08:14:14.491Z,308
2017-02-05T08:15:14.507Z,300
2017-02-05T08:16:14.520Z,316
2017-02-05T08:17:14.530Z,332
2017-02-05T08:18:14.547Z,320
2017-02-05T08:19:14.553Z,344
2017-02-05T08:20:14.571Z,324
2017-02-05T08:21:14.578Z,364
2017-02-05T08:22:14.694Z,356
2017-02-05T08:23:14.608Z,336
2017-02-05T08:24:14.616Z,336
2017-02-05T08:25:14.638Z,344
2017-02-05T08:26:14.645Z,356
2017-02-05T08:27:14.658Z,364
2017-02-05T08:28:14.770Z,336
2017-02-05T08:29:14.805Z,340
2017-02-05T08:30:14.691Z,388
2017-02-05T08:31:14.709Z,392
2017-02-05T08:32:14.717Z,344
2017-02-05T08:33:14.730Z,308
2017-02-05T08:34:14.754Z,248
2017-02-05T08:35:14.362Z,284
2017-02-05T08:36:14.553Z,368
2017-02-05T08:37:14.897Z,424
2017-02-05T08:38:14.908Z,420
2017-02-05T08:39:15.020Z,364
2017-02-05T08:40:14.422Z,284
2017-02-05T08:41:14.835Z,316
2017-02-05T08:42:14.842Z,364
2017-02-05T08:43:14.858Z,332
2017-02-05T08:44:14.921Z,336
2017-02-05T08:45:14.928Z,340
2017-02-05T08:46:14.938Z,364
2017-02-05T08:47:14.520Z,396
2017-02-05T08:48:14.956Z,372
2017-02-05T08:49:14.965Z,404
2017-02-05T08:50:14.634Z,376
2017-02-05T08:51:14.960Z,432
2017-02-05T08:52:14.972Z,512
2017-02-05T08:53:14.986Z,412
2017-02-05T08:54:14.600Z,364
2017-02-05T08:55:15.007Z,388
2017-02-05T08:56:15.019Z,452
2017-02-05T08:57:15.038Z,528
2017-02-05T08:58:15.051Z,520
2017-02-05T08:59:14.665Z,496
2017-02-05T09:00:15.077Z,504
2017-02-05T09:01:15.086Z,520
2017-02-05T09:02:14.800Z,492
2017-02-05T09:03:15.115Z,428
2017-02-05T09:04:15.127Z,364
2017-02-05T09:05:15.139Z,396
2017-02-05T09:06:15.154Z,384
2017-02-05T09:07:15.165Z,396
2017-02-05T09:08:14.779Z,404
2017-02-05T09:09:15.186Z,452
2017-02-05T09:10:15.197Z,528
2017-02-05T09:11:14.819Z,592
2017-02-05T09:12:14.833Z,576
2017-02-05T09:13:15.242Z,548
2017-02-05T09:14:14.861Z,492
2017-02-05T09:15:15.265Z,492
2017-02-05T09:16:15.276Z,424
2017-02-05T09:17:15.293Z,420
2017-02-05T09:18:15.300Z,432
2017-02-05T09:19:14.916Z,500
2017-02-05T09:20:15.331Z,536
2017-02-05T09:21:14.947Z,524
2017-02-05T09:22:14.966Z,488
2017-02-05T09:23:15.076Z,460
2017-02-05T09:24:15.476Z,424
2017-02-05T09:25:15.476Z,464
2017-02-05T09:26:15.150Z,480
2017-02-05T09:27:15.131Z,444
2017-02-05T09:28:15.508Z,456
2017-02-05T09:29:15.512Z,492
2017-02-05T09:30:15.549Z,564
2017-02-05T09:31:15.576Z,472
2017-02-05T09:32:15.494Z,444
2017-02-05T09:33:15.612Z,472
2017-02-05T09:34:15.508Z,460
2017-02-05T09:35:15.638Z,424
2017-02-05T09:36:15.141Z,388
2017-02-05T09:37:15.189Z,380
2017-02-05T09:38:15.603Z,392
2017-02-05T09:39:15.177Z,404
2017-02-05T09:40:15.235Z,384
2017-02-05T09:41:15.705Z,376
2017-02-05T09:42:15.218Z,364
2017-02-05T09:43:15.232Z,340
2017-02-05T09:44:15.731Z,344
2017-02-05T09:45:15.275Z,360
2017-02-05T09:46:15.761Z,396
2017-02-05T09:47:15.769Z,400
2017-02-05T09:48:15.294Z,372
2017-02-05T09:49:15.791Z,356
2017-02-05T09:50:16.591Z,388
2017-02-05T09:51:15.338Z,404
2017-02-05T09:52:15.736Z,436
2017-02-05T09:53:15.361Z,468
2017-02-05T09:54:15.381Z,456
2017-02-05T09:55:15.389Z,456
2017-02-05T09:56:16.049Z,500
2017-02-05T09:57:15.530Z,512
2017-02-05T09:58:15.930Z,536
2017-02-05T09:59:15.534Z,536
2017-02-05T10:00:15.961Z,508
2017-02-05T10:01:16.020Z,488
2017-02-05T10:02:15.713Z,504
2017-02-05T10:03:15.933Z,524
2017-02-05T10:04:15.930Z,516
2017-02-05T10:05:16.025Z,532
2017-02-05T10:06:15.948Z,528
2017-02-05T10:07:15.748Z,496
2017-02-05T10:08:15.963Z,488
2017-02-05T10:09:15.763Z,500
2017-02-05T10:10:15.985Z,512
2017-02-05T10:11:15.993Z,508
2017-02-05T10:12:15.873Z,496
2017-02-05T10:13:16.015Z,496
2017-02-05T10:14:16.030Z,520
2017-02-05T10:15:16.051Z,548
2017-02-05T10:16:16.056Z,568
2017-02-05T10:17:16.075Z,584
2017-02-05T10:18:16.088Z,568
2017-02-05T10:19:16.096Z,536
2017-02-05T10:20:16.109Z,528
2017-02-05T10:21:16.124Z,536
2017-02-05T10:22:15.894Z,572
2017-02-05T10:23:16.146Z,616
2017-02-05T10:24:16.287Z,656
2017-02-05T10:25:16.286Z,700
2017-02-05T10:26:16.295Z,740
2017-02-05T10:27:16.306Z,752
2017-02-05T10:28:16.318Z,752
2017-02-05T10:29:16.325Z,740
2017-02-05T10:30:16.346Z,752
2017-02-05T10:31:16.344Z,784
2017-02-05T10:32:16.387Z,828
2017-02-05T10:33:15.898Z,876
2017-02-05T10:34:16.338Z,864
2017-02-05T10:35:15.918Z,844
2017-02-05T10:36:16.324Z,804
2017-02-05T10:37:16.343Z,780
2017-02-05T10:38:16.357Z,788
2017-02-05T10:39:16.366Z,828
2017-02-05T10:40:16.575Z,884
2017-02-05T10:41:16.478Z,984
2017-02-05T10:42:16.594Z,1080
2017-02-05T10:43:16.416Z,1112
2017-02-05T10:44:16.433Z,1128
2017-02-05T10:45:16.454Z,1220
2017-02-05T10:46:16.462Z,1256
2017-02-05T10:47:16.486Z,1232
2017-02-05T10:48:16.489Z,1148
2017-02-05T10:49:16.498Z,1020
2017-02-05T10:50:16.506Z,956
2017-02-05T10:51:16.529Z,892
2017-02-05T10:52:16.630Z,996
2017-02-05T10:53:16.679Z,1084
2017-02-05T10:54:16.643Z,1036
2017-02-05T10:55:16.647Z,932
2017-02-05T10:56:16.654Z,876
2017-02-05T10:57:16.611Z,856
2017-02-05T10:58:16.625Z,844
2017-02-05T10:59:16.636Z,880
2017-02-05T11:00:16.646Z,900
2017-02-05T11:01:16.774Z,868
2017-02-05T11:02:16.794Z,892
2017-02-05T11:03:16.792Z,940
2017-02-05T11:04:16.788Z,956
2017-02-05T11:05:16.799Z,952
2017-02-05T11:06:16.809Z,904
2017-02-05T11:07:16.922Z,828
2017-02-05T11:08:16.886Z,760
2017-02-05T11:09:16.771Z,712
2017-02-05T11:10:16.780Z,676
2017-02-05T11:11:16.006Z,636
2017-02-05T11:12:16.420Z,588
2017-02-05T11:13:16.916Z,572
2017-02-05T11:14:16.842Z,544
2017-02-05T11:15:16.851Z,552
2017-02-05T11:16:16.864Z,608
2017-02-05T11:17:16.484Z,704
2017-02-05T11:18:16.896Z,740
2017-02-05T11:19:16.911Z,696
2017-02-05T11:20:16.524Z,664
2017-02-05T11:21:16.933Z,736
2017-02-05T11:22:17.000Z,828
2017-02-05T11:23:16.961Z,888
2017-02-05T11:24:16.976Z,772
2017-02-05T11:25:16.993Z,768
2017-02-05T11:26:17.132Z,764
2017-02-05T11:27:17.234Z,808
2017-02-05T11:28:17.144Z,780
2017-02-05T11:29:17.188Z,740
2017-02-05T11:30:17.061Z,736
2017-02-05T11:31:17.072Z,740
2017-02-05T11:32:17.093Z,736
2017-02-05T11:33:17.102Z,748
2017-02-05T11:34:17.117Z,732
2017-02-05T11:35:17.127Z,708
2017-02-05T11:36:17.156Z,700
2017-02-05T11:37:17.200Z,768
2017-02-05T11:38:17.167Z,800
2017-02-05T11:39:17.182Z,772
2017-02-05T11:40:17.200Z,732
2017-02-05T11:41:17.217Z,708
2017-02-05T11:42:17.230Z,704
2017-02-05T11:43:17.244Z,692
2017-02-05T11:44:17.257Z,700
2017-02-05T11:45:17.272Z,708
2017-02-05T11:46:17.282Z,704
2017-02-05T11:47:17.299Z,712
2017-02-05T11:48:17.309Z,736
2017-02-05T11:49:16.930Z,780
2017-02-05T11:50:17.339Z,800
2017-02-05T11:51:17.351Z,796
2017-02-05T11:52:17.366Z,792
2017-02-05T11:53:17.379Z,828
2017-02-05T11:54:16.996Z,880
2017-02-05T11:55:17.409Z,928
2017-02-05T11:56:17.425Z,920
2017-02-05T11:57:17.436Z,888
2017-02-05T11:58:17.499Z,912
2017-02-05T11:59:17.463Z,936
2017-02-05T12:00:17.480Z,936
2017-02-05T12:01:17.505Z,932
2017-02-05T12:02:17.210Z,928
2017-02-05T12:03:17.522Z,908
2017-02-05T12:04:17.576Z,888
2017-02-05T12:05:17.554Z,932
2017-02-05T12:06:17.561Z,952
2017-02-05T12:07:17.574Z,928
2017-02-05T12:08:17.592Z,924
2017-02-05T12:09:17.603Z,952
2017-02-05T12:10:17.622Z,968
2017-02-05T12:11:17.267Z,972
2017-02-05T12:12:17.651Z,964
2017-02-05T12:13:17.674Z,964
2017-02-05T12:14:17.699Z,936
2017-02-05T12:15:17.690Z,932
2017-02-05T12:16:17.703Z,980
2017-02-05T12:17:17.717Z,1032
2017-02-05T12:18:17.734Z,1012
2017-02-05T12:19:17.766Z,980
2017-02-05T12:20:17.763Z,972
2017-02-05T12:21:17.781Z,1000
2017-02-05T12:22:17.785Z,992
2017-02-05T12:23:17.813Z,968
2017-02-05T12:24:17.827Z,952
2017-02-05T12:25:17.851Z,944
2017-02-05T12:26:17.847Z,956
2017-02-05T12:27:17.864Z,980
2017-02-05T12:28:17.920Z,1000
2017-02-05T12:29:17.901Z,1040
2017-02-05T12:30:17.908Z,1028
2017-02-05T12:31:17.911Z,1004
2017-02-05T12:32:17.946Z,1008
2017-02-05T12:33:17.949Z,1028
2017-02-05T12:34:17.966Z,1004
2017-02-05T12:35:17.645Z,944
2017-02-05T12:36:18.009Z,852
2017-02-05T12:37:18.008Z,792
2017-02-05T12:38:18.016Z,780
2017-02-05T12:39:18.047Z,804
2017-02-05T12:40:18.051Z,860
2017-02-05T12:41:18.069Z,884
2017-02-05T12:42:18.081Z,916
2017-02-05T12:43:18.124Z,924
2017-02-05T12:44:18.127Z,936
2017-02-05T12:45:18.129Z,956
2017-02-05T12:46:18.136Z,1032
2017-02-05T12:47:18.362Z,1072
2017-02-05T12:48:18.172Z,1056
2017-02-05T12:49:18.196Z,1036
2017-02-05T12:50:18.198Z,972
2017-02-05T12:51:18.216Z,872
2017-02-05T12:52:18.228Z,832
2017-02-05T12:53:18.252Z,804
2017-02-05T12:54:18.256Z,824
2017-02-05T12:55:18.272Z,884
2017-02-05T12:56:18.293Z,968
2017-02-05T12:57:18.302Z,1012
2017-02-05T12:58:18.438Z,1048
2017-02-05T12:59:18.436Z,1096
2017-02-05T13:00:17.941Z,1136
2017-02-05T13:01:17.964Z,1140
2017-02-05T13:02:18.392Z,1156
2017-02-05T13:03:18.384Z,1224
2017-02-05T13:04:18.402Z,1264
2017-02-05T13:05:18.537Z,1296
2017-02-05T13:06:18.550Z,1328
2017-02-05T13:07:18.556Z,1320
2017-02-05T13:08:18.577Z,1284
2017-02-05T13:09:18.566Z,1292
2017-02-05T13:10:18.607Z,1384
2017-02-05T13:11:18.604Z,1460
2017-02-05T13:12:18.138Z,1404
2017-02-05T13:13:18.614Z,1336
2017-02-05T13:14:18.629Z,1388
2017-02-05T13:15:18.645Z,1520
2017-02-05T13:16:18.658Z,1540
2017-02-05T13:17:18.676Z,1448
2017-02-05T13:18:18.742Z,1340
2017-02-05T13:19:18.740Z,1272
2017-02-05T13:20:18.751Z,1264
2017-02-05T13:21:18.752Z,1204
2017-02-05T13:22:18.776Z,1072
2017-02-05T13:23:18.780Z,1048
2017-02-05T13:24:18.788Z,1164
2017-02-05T13:25:18.828Z,1280
2017-02-05T13:26:18.815Z,1280
2017-02-05T13:27:19.002Z,1240
2017-02-05T13:28:18.923Z,1312
2017-02-05T13:29:18.901Z,1384
2017-02-05T13:30:18.910Z,1288
2017-02-05T13:31:18.920Z,1172
2017-02-05T13:32:19.034Z,1188
2017-02-05T13:33:18.926Z,1136
2017-02-05T13:34:18.678Z,1092
2017-02-05T13:35:18.566Z,988
2017-02-05T13:36:19.094Z,948
2017-02-05T13:37:19.090Z,928
2017-02-05T13:38:19.096Z,904
2017-02-05T13:39:19.109Z,844
2017-02-05T13:40:18.167Z,760
2017-02-05T13:41:19.057Z,680
2017-02-05T13:42:19.085Z,596
2017-02-05T13:43:19.071Z,516
2017-02-05T13:44:19.080Z,508
2017-02-05T13:45:19.091Z,560
2017-02-05T13:46:19.099Z,460
2017-02-05T13:47:18.738Z,436
2017-02-05T13:48:19.130Z,428
2017-02-05T13:49:19.136Z,400
2017-02-05T13:50:18.785Z,392
2017-02-05T13:51:18.947Z,384
2017-02-05T13:52:19.155Z,376
2017-02-05T13:53:19.140Z,384
2017-02-05T13:54:19.166Z,400
2017-02-05T13:55:19.172Z,412
2017-02-05T13:56:19.185Z,424
2017-02-05T13:57:19.198Z,500
2017-02-05T13:58:18.831Z,540
2017-02-05T13:59:19.233Z,592
2017-02-05T14:00:19.251Z,536
2017-02-05T14:01:19.264Z,440
2017-02-05T14:02:19.274Z,428
2017-02-05T14:03:19.297Z,456
2017-02-05T14:04:19.311Z,576
2017-02-05T14:05:19.325Z,752
2017-02-05T14:06:19.335Z,804
2017-02-05T14:07:19.360Z,640
2017-02-05T14:08:19.419Z,576
2017-02-05T14:09:19.390Z,496
2017-02-05T14:10:19.591Z,444
2017-02-05T14:11:19.529Z,524
2017-02-05T14:12:19.437Z,664
2017-02-05T14:13:19.452Z,764